Terminal Aerodrome Forecast
Issued by NWS

Current Version | Previous Version | Text Only | Print | Product List | Glossary On
Versions: 1 2 3 4 5 6 7 8 9 10 11 12 13 14 15 16 17 18 19 20 21 22 23 24 25 26 27 28 29 30 31 32 33 34
000
FTUS42 KCAE 221733
TAFCUB
TAF
KCUB 221733Z 2218/2318 17006KT P6SM SHRA SCT030 BKN045
      TEMPO 2218/2220 2SM TSRA BR BKN030CB
     FM222100 17006KT P6SM VCSH SCT030 BKN050
     FM230000 19003KT P6SM SCT070 BKN150
     FM230900 00000KT 6SM BR OVC007
     FM231400 24005KT P6SM VCSH BKN025=

USA.gov is the U.S. government's official web portal to all federal, state and local government web resources and services.